Colorado Springs, CO (80946)

8:38 PM MST on November 27, 2014 (GMT -0700)
Old North End (Cascade & Washington) | Change Station
CLOSE
Current Station
Personal Weather Station
Location: Colorado Springs, CO
Elevation: 6122 ft
Nearby Weather Stations

Elev 6122 ft 38.86 °N, 104.82 °W | Updated 14 minutes ago

Partly Cloudy
Partly Cloudy
50.5 °F
Feels Like 50.5 °F
N
0.0
Wind Variable Wind from West

Today
High -- | Low -- °F
--% Chance of Precip.
Yesterday
High -- | Low -- °F
Precip. -- in
6:54 AM 4:38 PM
Waxing Crescent, 36% visible
Pressure 30.13 in
Visibility 10.0 miles
Clouds Few 16000 ft
Mostly Cloudy 23000 ft
Dew Point 18 °F
Humidity 27%
Rainfall 0.06 in
Snow Depth Not available.
UV 0 out of 12
Pollen .10 out of 12
Air Quality Not available.
Flu Activity Not available.
METAR KCOS 280254Z 31010KT 10SM FEW160 BKN230 12/M10 A3018 RMK AO2 SLP201 T01221100 55003

More Conditions Fewer Conditions

Pressure 30.13 in
Visibility 10.0 miles
Clouds Few 16000 ft
Mostly Cloudy 23000 ft
Dew Point 18 °F
Humidity 27%
Rainfall 0.06 in
Snow Depth Not available.
UV 0 out of 12
Pollen .10 out of 12
Air Quality Not available.
Flu Activity Not available.
METAR KCOS 280254Z 31010KT 10SM FEW160 BKN230 12/M10 A3018 RMK AO2 SLP201 T01221100 55003

More Conditions Fewer Conditions

10-Day Weather Forecast

Almanac

Astronomy

Nov. 27, 2014 Rise Set
Actual Time
Civil Twilight
Nautical Twilight
Astronomical Twilight
Moon
Length of Visible Light
Length of Day
Tomorrow will be .
, % of the Moon is Illuminated

Today's Extremes

State Highs State Lows

Community

WunderPhotos

Upload Photos

1,774,168 photos uploaded!

WunderBlogs® & News

Nearby

Air Quality

  Air Quality AQ Index Pollutant
Not available.

Snow Depth

Station Depth Elevation

Earthquake Activity

City Distance Mag. Time & Date
Minimum magnitude displayed is 2.5.

Coastal Water Temperatures

Place Temperature

Nearby Weather Stations